Helena — SCGL — position and weather

sailwx.info

Track history (hours):
 
Tides and Currents Weather Stations Pressure Air Temp Water Temp Dewpoint Dewpoint Depression Visibility Wind Speed Wind Dir Waves Ship Positions

Helena

Last reported at 2016-May-03 00:34 UTC. Time now 2016-May-03 01:12 UTC.
Position N 55°12' E 014°22'.

Length 169 m; draft 6.3 m.

Type: Cargo ship. MMSI: 265145000.

Date/timePositionNaut miles runAvg speedWind from/ knotsBaromVisibWave heightAir tempDewpointWater temp
2016-May-03 00:34N 55°12' E 014°22'1616.0
2016-May-02 23:34N 55°00' E 014°03'1616.1
2016-May-02 22:33N 54°55' E 013°37'1616.1
2016-May-02 21:34N 54°50' E 013°10'1615.8
2016-May-02 20:33N 54°44' E 012°45'1515.3
2016-May-02 19:33N 54°34' E 012°23'1514.6
2016-May-02 18:33N 54°24' E 012°05'1514.9
2016-May-02 17:33N 54°18' E 011°43'1615.6
2016-May-02 16:34N 54°09' E 011°20'25 2.7
2016-May-02 07:32N 53°54' E 010°47'0 0.0
2016-May-02 04:28N 53°54' E 010°47'5 5.9
2016-May-02 03:33N 53°58' E 010°53'1111.2
2016-May-02 02:33N 54°06' E 011°07'1211.9
2016-May-02 01:33N 54°13' E 011°23'1212.2
2016-May-02 00:33N 54°19' E 011°41'1212.1
2016-May-01 23:33N 54°25' E 011°59'1010.4
2016-May-01 22:33N 54°32' E 012°13'1111.4
2016-May-01 21:33N 54°41' E 012°25'1311.7
2016-May-01 20:28N 54°48' E 012°43'1011.3
2016-May-01 19:33N 54°51' E 013°00'1211.5
2016-May-01 18:33N 54°55' E 013°19'2210.1
2016-May-01 16:21N 55°03' E 013°55'7 8.8
2016-May-01 15:33N 55°07' E 014°06'9 8.8
2016-May-01 14:33N 55°13' E 014°17'10 9.9
2016-May-01 13:33N 55°20' E 014°28'10 9.6
2016-May-01 12:33N 55°27' E 014°39'10 9.8
2016-May-01 11:33N 55°32' E 014°54'10 9.9
2016-May-01 10:34N 55°37' E 015°10'10 9.8
2016-May-01 09:33N 55°42' E 015°24'10 9.9
2016-May-01 08:34N 55°47' E 015°39'9 9.4
2016-May-01 07:33N 55°52' E 015°54'  
2016-Apr-26 03:27N 55°42' E 015°35'1416.0
2016-Apr-26 02:34N 55°35' E 015°14'1616.0
2016-Apr-26 01:34N 55°27' E 014°49'1615.8
2016-Apr-26 00:34N 55°16' E 014°29'1716.5
2016-Apr-25 23:34N 55°03' E 014°11'1616.1
2016-Apr-25 22:33N 54°56' E 013°46'3216.0
2016-Apr-25 20:33N 54°46' E 012°53'2315.7
2016-Apr-25 19:06N 54°33' E 012°21'916.0
2016-Apr-25 18:34N 54°26' E 012°12'1616.0
2016-Apr-25 17:34N 54°19' E 011°47'1716.5
2016-Apr-25 16:34N 54°10' E 011°23'8 0.6
2016-Apr-25 02:21N 54°07' E 011°10'1012.4
2016-Apr-25 01:33N 54°13' E 011°24'1312.8
2016-Apr-25 00:33N 54°20' E 011°42'1312.8
2016-Apr-24 23:33N 54°26' E 012°02'1111.2
2016-Apr-24 22:33N 54°35' E 012°14'1212.4
2016-Apr-24 21:33N 54°43' E 012°31'5410.2
2016-Apr-24 16:16N 55°03' E 013°58'5 7.7
2016-Apr-24 15:33N 55°06' E 014°06'8 8.0
2016-Apr-24 14:33N 55°12' E 014°15'8 8.0
2016-Apr-24 13:33N 55°18' E 014°24'8 8.1
2016-Apr-24 12:33N 55°24' E 014°33'8 7.9
2016-Apr-24 11:33N 55°29' E 014°45'8 8.0
2016-Apr-24 10:33N 55°33' E 014°57'8 7.8
2016-Apr-24 09:33N 55°37' E 015°08'  
Track history (hours):
 
Tides and Currents Weather Stations Pressure Air Temp Water Temp Dewpoint Dewpoint Depression Visibility Wind Speed Wind Dir Waves Ship Positions

Helena

Last reported at 2016-May-03 00:34 UTC. Time now 2016-May-03 01:12 UTC.
Position N 55°12' E 014°22'.

Length 169 m; draft 6.3 m.

Type: Cargo ship. MMSI: 265145000.

Date/timePositionNaut miles runAvg speedWind from/ knotsBaromVisibWave heightAir tempDewpointWater temp
2016-May-03 00:34N 55°12' E 014°22'1616.0
2016-May-02 23:34N 55°00' E 014°03'1616.1
2016-May-02 22:33N 54°55' E 013°37'1616.1
2016-May-02 21:34N 54°50' E 013°10'1615.8
2016-May-02 20:33N 54°44' E 012°45'1515.3
2016-May-02 19:33N 54°34' E 012°23'1514.6
2016-May-02 18:33N 54°24' E 012°05'1514.9
2016-May-02 17:33N 54°18' E 011°43'1615.6
2016-May-02 16:34N 54°09' E 011°20'25 2.7
2016-May-02 07:32N 53°54' E 010°47'0 0.0
2016-May-02 04:28N 53°54' E 010°47'5 5.9
2016-May-02 03:33N 53°58' E 010°53'1111.2
2016-May-02 02:33N 54°06' E 011°07'1211.9
2016-May-02 01:33N 54°13' E 011°23'1212.2
2016-May-02 00:33N 54°19' E 011°41'1212.1
2016-May-01 23:33N 54°25' E 011°59'1010.4
2016-May-01 22:33N 54°32' E 012°13'1111.4
2016-May-01 21:33N 54°41' E 012°25'1311.7
2016-May-01 20:28N 54°48' E 012°43'1011.3
2016-May-01 19:33N 54°51' E 013°00'1211.5
2016-May-01 18:33N 54°55' E 013°19'2210.1
2016-May-01 16:21N 55°03' E 013°55'7 8.8
2016-May-01 15:33N 55°07' E 014°06'9 8.8
2016-May-01 14:33N 55°13' E 014°17'10 9.9
2016-May-01 13:33N 55°20' E 014°28'10 9.6
2016-May-01 12:33N 55°27' E 014°39'10 9.8
2016-May-01 11:33N 55°32' E 014°54'10 9.9
2016-May-01 10:34N 55°37' E 015°10'10 9.8
2016-May-01 09:33N 55°42' E 015°24'10 9.9
2016-May-01 08:34N 55°47' E 015°39'9 9.4
2016-May-01 07:33N 55°52' E 015°54'  
2016-Apr-26 03:27N 55°42' E 015°35'1416.0
2016-Apr-26 02:34N 55°35' E 015°14'1616.0
2016-Apr-26 01:34N 55°27' E 014°49'1615.8
2016-Apr-26 00:34N 55°16' E 014°29'1716.5
2016-Apr-25 23:34N 55°03' E 014°11'1616.1
2016-Apr-25 22:33N 54°56' E 013°46'3216.0
2016-Apr-25 20:33N 54°46' E 012°53'2315.7
2016-Apr-25 19:06N 54°33' E 012°21'916.0
2016-Apr-25 18:34N 54°26' E 012°12'1616.0
2016-Apr-25 17:34N 54°19' E 011°47'1716.5
2016-Apr-25 16:34N 54°10' E 011°23'8 0.6
2016-Apr-25 02:21N 54°07' E 011°10'1012.4
2016-Apr-25 01:33N 54°13' E 011°24'1312.8
2016-Apr-25 00:33N 54°20' E 011°42'1312.8
2016-Apr-24 23:33N 54°26' E 012°02'1111.2
2016-Apr-24 22:33N 54°35' E 012°14'1212.4
2016-Apr-24 21:33N 54°43' E 012°31'5410.2
2016-Apr-24 16:16N 55°03' E 013°58'5 7.7
2016-Apr-24 15:33N 55°06' E 014°06'8 8.0
2016-Apr-24 14:33N 55°12' E 014°15'8 8.0
2016-Apr-24 13:33N 55°18' E 014°24'8 8.1
2016-Apr-24 12:33N 55°24' E 014°33'8 7.9
2016-Apr-24 11:33N 55°29' E 014°45'8 8.0
2016-Apr-24 10:33N 55°33' E 014°57'8 7.8
2016-Apr-24 09:33N 55°37' E 015°08'  

Dump ship's entire track history